createdAt,value
2022-10-03T00:03:57.323Z,14.90
2022-10-03T00:09:26.429Z,14.80
2022-10-03T00:14:41.487Z,14.80
2022-10-03T00:20:05.897Z,14.70
2022-10-03T00:25:44.333Z,14.60
2022-10-03T00:30:52.859Z,14.70
2022-10-03T00:36:02.536Z,14.70
2022-10-03T00:41:27.442Z,14.60
2022-10-03T00:46:58.301Z,14.50
2022-10-03T00:52:22.605Z,14.50
2022-10-03T00:57:27.573Z,14.50
2022-10-03T01:02:41.435Z,14.40
2022-10-03T01:08:02.862Z,15.40
2022-10-03T01:13:15.238Z,14.30
2022-10-03T01:18:40.181Z,14.20
2022-10-03T01:23:53.483Z,14.20
2022-10-03T01:29:23.673Z,14.20
2022-10-03T01:34:30.827Z,14.10
2022-10-03T01:39:46.509Z,14.10
2022-10-03T01:45:13.817Z,14.10
2022-10-03T01:50:28.689Z,14.00
2022-10-03T01:55:49.317Z,14.00
2022-10-03T02:01:08.852Z,14.10
2022-10-03T02:06:17.973Z,14.10
2022-10-03T02:11:41.620Z,14.00
2022-10-03T02:16:57.392Z,13.90
2022-10-03T02:22:00.495Z,14.00
2022-10-03T02:27:27.502Z,14.00
2022-10-03T02:32:48.947Z,14.00
2022-10-03T02:38:17.876Z,14.00
2022-10-03T02:44:03.757Z,13.90
2022-10-03T02:49:25.424Z,14.00
2022-10-03T02:54:56.463Z,13.90
2022-10-03T03:00:29.396Z,13.80
2022-10-03T03:05:41.589Z,13.80
2022-10-03T03:11:08.226Z,13.80
2022-10-03T03:16:32.692Z,13.90
2022-10-03T03:21:46.347Z,13.90
2022-10-03T03:27:00.330Z,13.80
2022-10-03T03:32:28.243Z,13.70
2022-10-03T03:37:34.457Z,13.90
2022-10-03T03:42:54.006Z,13.90
2022-10-03T03:48:39.566Z,13.80
2022-10-03T03:54:03.510Z,13.80
2022-10-03T03:59:23.403Z,13.90
2022-10-03T04:04:56.179Z,13.80
2022-10-03T04:09:59.742Z,13.90
2022-10-03T04:15:17.815Z,13.80
2022-10-03T04:20:39.483Z,13.90
2022-10-03T04:26:01.222Z,14.00
2022-10-03T04:31:23.975Z,14.00
2022-10-03T04:36:35.567Z,14.00
2022-10-03T04:41:45.957Z,13.90
2022-10-03T04:46:56.291Z,13.90
2022-10-03T04:52:25.929Z,13.90
2022-10-03T04:57:32.772Z,13.90
2022-10-03T05:03:07.217Z,13.80
2022-10-03T05:08:15.774Z,13.90
2022-10-03T05:13:49.070Z,13.90
2022-10-03T05:19:03.400Z,13.90
2022-10-03T05:24:47.040Z,13.70
2022-10-03T05:29:59.842Z,13.70
2022-10-03T05:35:20.887Z,13.90
2022-10-03T05:40:29.886Z,13.60
2022-10-03T05:45:57.973Z,13.40
2022-10-03T05:51:13.214Z,13.30
2022-10-03T05:56:57.970Z,13.20
2022-10-03T06:02:13.752Z,13.20
2022-10-03T06:07:28.897Z,13.20
2022-10-03T06:13:03.722Z,13.20
2022-10-03T06:18:39.334Z,13.10
2022-10-03T06:23:48.090Z,13.20
2022-10-03T06:29:21.322Z,13.20
2022-10-03T06:34:51.833Z,13.30
2022-10-03T06:40:08.939Z,13.30
2022-10-03T06:45:31.272Z,13.40
2022-10-03T06:50:52.781Z,13.30
2022-10-03T06:56:05.143Z,13.40
2022-10-03T07:01:23.984Z,13.40
2022-10-03T07:06:48.903Z,13.50
2022-10-03T07:12:25.683Z,13.60
2022-10-03T07:18:16.241Z,13.60
2022-10-03T07:23:38.332Z,13.70
2022-10-03T07:29:21.397Z,13.80
2022-10-03T07:34:44.293Z,13.90
2022-10-03T07:40:01.094Z,13.90
2022-10-03T07:45:39.493Z,14.00
2022-10-03T07:50:57.425Z,14.00
2022-10-03T07:56:20.000Z,14.10
2022-10-03T08:01:42.617Z,14.20
2022-10-03T08:06:55.184Z,14.30
2022-10-03T08:12:33.589Z,14.30
2022-10-03T08:17:45.267Z,14.30
2022-10-03T08:22:47.928Z,14.30
2022-10-03T08:28:13.414Z,14.30
2022-10-03T08:33:48.220Z,14.40
2022-10-03T08:39:11.170Z,14.70
2022-10-03T08:44:36.348Z,14.90
2022-10-03T08:50:05.732Z,14.80
2022-10-03T08:55:14.172Z,14.90
2022-10-03T09:00:26.027Z,14.90
2022-10-03T09:05:47.174Z,15.00
2022-10-03T09:11:11.351Z,15.10
2022-10-03T09:16:42.263Z,15.20
2022-10-03T09:22:07.148Z,15.30
2022-10-03T09:27:31.527Z,15.40
2022-10-03T09:32:34.666Z,15.50
2022-10-03T09:37:56.601Z,15.60
2022-10-03T09:43:38.049Z,15.70
2022-10-03T09:49:25.805Z,15.60
2022-10-03T09:55:13.506Z,15.90
2022-10-03T10:00:20.520Z,16.10
2022-10-03T10:05:54.105Z,16.10
2022-10-03T10:11:40.811Z,16.20
2022-10-03T10:17:17.411Z,16.20
2022-10-03T10:22:47.654Z,16.10
2022-10-03T10:28:12.702Z,16.40
2022-10-03T10:33:24.281Z,16.70
2022-10-03T10:38:43.493Z,16.90
2022-10-03T10:43:56.817Z,17.10
2022-10-03T10:49:09.016Z,17.00
2022-10-03T10:54:36.771Z,16.50
2022-10-03T11:00:05.252Z,16.60
2022-10-03T11:06:05.193Z,16.80
2022-10-03T11:11:28.066Z,17.00
2022-10-03T11:16:55.306Z,17.00
2022-10-03T11:22:46.074Z,17.00
2022-10-03T11:28:00.619Z,17.00
2022-10-03T11:33:31.396Z,16.80
2022-10-03T11:38:55.247Z,16.80
2022-10-03T11:44:04.968Z,16.80
2022-10-03T11:49:46.253Z,17.00
2022-10-03T11:54:59.321Z,16.90
2022-10-03T12:00:19.829Z,17.20
2022-10-03T12:05:32.082Z,17.50
2022-10-03T12:10:59.187Z,17.60
2022-10-03T12:16:07.060Z,17.70
2022-10-03T12:21:22.043Z,17.70
2022-10-03T12:26:44.054Z,17.60
2022-10-03T12:32:01.670Z,17.70
2022-10-03T12:37:39.201Z,18.10
2022-10-03T12:43:04.695Z,18.40
2022-10-03T12:48:26.576Z,18.60
2022-10-03T12:53:38.538Z,18.90
2022-10-03T12:58:53.375Z,18.40
2022-10-03T13:04:24.075Z,18.30
2022-10-03T13:09:49.714Z,18.50
2022-10-03T13:15:30.252Z,18.70
2022-10-03T13:20:42.357Z,18.60
2022-10-03T13:26:18.600Z,17.90
2022-10-03T13:31:26.889Z,18.10
2022-10-03T13:36:51.036Z,17.90
2022-10-03T13:42:08.152Z,17.50
2022-10-03T13:47:44.543Z,17.70
2022-10-03T13:53:24.959Z,18.20
2022-10-03T13:58:40.723Z,18.30
2022-10-03T14:04:15.893Z,18.50
2022-10-03T14:09:38.276Z,18.10
2022-10-03T14:15:04.386Z,18.00
2022-10-03T14:20:25.574Z,18.10
2022-10-03T14:25:38.324Z,17.90
2022-10-03T14:31:08.480Z,18.00
2022-10-03T14:36:29.007Z,18.20
2022-10-03T14:41:51.473Z,18.50
2022-10-03T14:47:09.743Z,18.60
2022-10-03T14:52:45.190Z,18.70
2022-10-03T14:58:11.091Z,18.90
2022-10-03T15:03:17.284Z,18.80
2022-10-03T15:08:21.381Z,18.90
2022-10-03T15:13:27.577Z,18.80
2022-10-03T15:18:31.694Z,18.70
2022-10-03T15:23:41.130Z,18.50
2022-10-03T15:28:51.920Z,18.70
2022-10-03T15:33:55.853Z,18.80
2022-10-03T15:39:02.466Z,18.60
2022-10-03T15:44:23.910Z,18.70
2022-10-03T15:49:33.831Z,18.40
2022-10-03T15:54:38.945Z,18.10
2022-10-03T15:59:45.260Z,18.10
2022-10-03T16:04:54.578Z,18.30
2022-10-03T16:10:33.714Z,18.30
2022-10-03T16:16:18.969Z,18.50
2022-10-03T16:21:45.293Z,18.50
2022-10-03T16:27:06.363Z,18.50
2022-10-03T16:32:23.562Z,18.50
2022-10-03T16:37:27.990Z,18.40
2022-10-03T16:42:45.872Z,18.40
2022-10-03T16:48:09.862Z,18.20
2022-10-03T16:53:13.581Z,18.20
2022-10-03T16:58:29.506Z,18.00
2022-10-03T17:03:47.223Z,18.10
2022-10-03T17:08:53.043Z,18.20
2022-10-03T17:14:01.932Z,18.20
2022-10-03T17:19:17.133Z,18.20
2022-10-03T17:24:41.415Z,18.10
2022-10-03T17:29:56.469Z,17.90
2022-10-03T17:35:15.529Z,17.90
2022-10-03T17:40:37.109Z,17.90
2022-10-03T17:46:03.531Z,17.90
2022-10-03T17:51:42.061Z,17.80
2022-10-03T17:56:56.666Z,17.80
2022-10-03T18:02:15.566Z,17.80
2022-10-03T18:07:24.974Z,17.50
2022-10-03T18:12:41.998Z,17.70
2022-10-03T18:18:22.347Z,17.70
2022-10-03T18:23:54.733Z,17.70
2022-10-03T18:29:35.745Z,17.70
2022-10-03T18:34:49.013Z,15.80
2022-10-03T18:39:54.926Z,17.20
2022-10-03T18:45:00.221Z,17.30
2022-10-03T18:50:25.975Z,17.30
2022-10-03T18:55:40.859Z,17.20
2022-10-03T19:01:08.367Z,17.20
2022-10-03T19:06:21.792Z,17.10
2022-10-03T19:11:35.689Z,16.90
2022-10-03T19:17:03.683Z,16.60
2022-10-03T19:22:07.682Z,16.50
2022-10-03T19:27:18.534Z,16.60
2022-10-03T19:32:45.667Z,16.80
2022-10-03T19:38:00.008Z,16.80
2022-10-03T19:43:48.632Z,16.80
2022-10-03T19:49:00.964Z,16.80
2022-10-03T19:54:13.600Z,16.80
2022-10-03T19:59:18.342Z,16.80
2022-10-03T20:04:36.515Z,16.80
2022-10-03T20:09:44.260Z,16.70
2022-10-03T20:14:51.353Z,16.50
2022-10-03T20:20:06.400Z,16.20
2022-10-03T20:25:32.961Z,16.30
2022-10-03T20:30:52.580Z,16.30
2022-10-03T20:36:03.769Z,16.40
2022-10-03T20:41:15.748Z,16.40
2022-10-03T20:46:35.923Z,16.40
2022-10-03T20:52:02.179Z,16.30
2022-10-03T20:57:25.997Z,15.80
2022-10-03T21:02:41.659Z,15.60
2022-10-03T21:07:52.090Z,15.60
2022-10-03T21:13:06.897Z,15.70
2022-10-03T21:18:32.817Z,15.90
2022-10-03T21:23:43.398Z,15.80
2022-10-03T21:28:49.173Z,15.80
2022-10-03T21:34:00.376Z,15.90
2022-10-03T21:39:19.362Z,15.90
2022-10-03T21:44:52.335Z,15.90
2022-10-03T21:50:00.954Z,15.70
2022-10-03T21:55:29.871Z,15.70
2022-10-03T22:01:08.693Z,15.70
2022-10-03T22:06:24.391Z,15.40
2022-10-03T22:11:46.375Z,15.40
2022-10-03T22:16:58.121Z,15.30
2022-10-03T22:22:39.678Z,15.30
2022-10-03T22:27:53.233Z,15.30
2022-10-03T22:33:10.460Z,15.30
2022-10-03T22:38:16.260Z,15.20
2022-10-03T22:43:20.567Z,15.30
2022-10-03T22:48:31.780Z,15.20
2022-10-03T22:53:36.963Z,15.10
2022-10-03T22:58:39.791Z,15.20
2022-10-03T23:03:42.742Z,15.20
2022-10-03T23:09:06.874Z,15.30
2022-10-03T23:14:23.369Z,15.40
2022-10-03T23:19:53.861Z,15.40
2022-10-03T23:25:05.647Z,15.40
2022-10-03T23:30:18.134Z,15.50
2022-10-03T23:35:39.611Z,15.30
2022-10-03T23:40:47.706Z,15.30
2022-10-03T23:45:53.384Z,15.40
2022-10-03T23:51:01.511Z,15.30
2022-10-03T23:56:22.567Z,15.00
